createdAt,value
2023-04-27T00:01:51.754Z,5.45
2023-04-27T00:04:19.374Z,5.53
2023-04-27T00:06:46.240Z,5.42
2023-04-27T00:09:13.038Z,5.38
2023-04-27T00:11:39.631Z,5.44
2023-04-27T00:14:06.112Z,5.37
2023-04-27T00:16:32.667Z,5.68
2023-04-27T00:18:59.165Z,5.69
2023-04-27T00:21:25.622Z,5.52
2023-04-27T00:23:52.095Z,5.42
2023-04-27T00:26:18.562Z,5.42
2023-04-27T00:28:45.029Z,5.34
2023-04-27T00:31:11.643Z,5.13
2023-04-27T00:33:38.148Z,5.53
2023-04-27T00:36:04.979Z,5.48
2023-04-27T00:38:31.623Z,5.29
2023-04-27T00:41:05.677Z,5.35
2023-04-27T00:43:32.701Z,5.27
2023-04-27T00:46:00.687Z,5.10
2023-04-27T00:48:27.293Z,4.90
2023-04-27T00:50:53.932Z,5.06
2023-04-27T00:53:20.794Z,5.11
2023-04-27T00:55:47.582Z,5.04
2023-04-27T00:58:14.067Z,4.97
2023-04-27T01:00:40.956Z,5.06
2023-04-27T01:03:09.034Z,4.94
2023-04-27T01:05:49.083Z,4.80
2023-04-27T01:08:15.674Z,4.90
2023-04-27T01:10:42.418Z,4.98
2023-04-27T01:13:09.621Z,4.98
2023-04-27T01:15:36.213Z,4.75
2023-04-27T01:18:02.946Z,4.97
2023-04-27T01:20:30.489Z,4.78
2023-04-27T01:22:57.704Z,4.66
2023-04-27T01:25:24.797Z,4.32
2023-04-27T01:27:51.463Z,4.60
2023-04-27T01:30:17.938Z,4.27
2023-04-27T01:32:44.454Z,4.41
2023-04-27T01:35:11.317Z,4.50
2023-04-27T01:37:37.805Z,4.61
2023-04-27T01:40:06.621Z,4.44
2023-04-27T01:42:33.175Z,4.56
2023-04-27T01:45:00.577Z,4.70
2023-04-27T01:47:27.729Z,4.52
2023-04-27T01:49:54.235Z,4.41
2023-04-27T01:52:20.719Z,4.36
2023-04-27T01:54:47.185Z,4.46
2023-04-27T01:57:14.403Z,4.28
2023-04-27T01:59:40.921Z,4.32
2023-04-27T02:02:07.535Z,4.43
2023-04-27T02:04:36.563Z,4.35
2023-04-27T02:07:03.540Z,4.33
2023-04-27T02:09:30.067Z,4.43
2023-04-27T02:11:56.533Z,4.31
2023-04-27T02:14:22.988Z,4.18
2023-04-27T02:16:49.508Z,4.25
2023-04-27T02:19:16.330Z,4.34
2023-04-27T02:21:43.124Z,4.25
2023-04-27T02:24:10.078Z,4.38
2023-04-27T02:26:36.555Z,4.12
2023-04-27T02:29:03.930Z,4.31
2023-04-27T02:31:31.378Z,4.37
2023-04-27T02:33:57.849Z,4.20
2023-04-27T02:36:24.330Z,4.51
2023-04-27T02:38:50.852Z,4.40
2023-04-27T02:41:17.338Z,4.21
2023-04-27T02:43:43.900Z,4.46
2023-04-27T02:46:10.460Z,4.30
2023-04-27T02:48:36.973Z,4.33
2023-04-27T02:51:04.732Z,4.42
2023-04-27T02:53:31.272Z,4.54
2023-04-27T02:55:58.486Z,4.44
2023-04-27T02:58:25.112Z,4.55
2023-04-27T03:00:55.731Z,4.48
2023-04-27T03:03:23.139Z,4.42
2023-04-27T03:05:49.753Z,4.58
2023-04-27T03:08:16.329Z,4.41
2023-04-27T03:10:42.757Z,4.22
2023-04-27T03:13:09.261Z,4.07
2023-04-27T03:15:35.795Z,4.18
2023-04-27T03:18:02.413Z,4.15
2023-04-27T03:20:28.935Z,4.23
2023-04-27T03:22:55.491Z,4.14
2023-04-27T03:25:22.383Z,4.42
2023-04-27T03:27:48.915Z,4.14
2023-04-27T03:30:15.453Z,4.35
2023-04-27T03:32:42.102Z,4.07
2023-04-27T03:35:09.753Z,4.15
2023-04-27T03:37:36.333Z,4.37
2023-04-27T03:40:02.900Z,4.34
2023-04-27T03:42:29.638Z,4.25
2023-04-27T03:44:56.087Z,4.50
2023-04-27T03:47:22.864Z,4.47
2023-04-27T03:49:49.336Z,4.45
2023-04-27T03:52:15.821Z,4.12
2023-04-27T03:54:42.267Z,4.27
2023-04-27T03:57:09.128Z,4.35
2023-04-27T03:59:35.603Z,4.13
2023-04-27T04:02:03.930Z,4.42
2023-04-27T04:04:31.221Z,4.25
2023-04-27T04:06:59.105Z,4.07
2023-04-27T06:10:57.662Z,6.38
2023-04-27T06:50:43.965Z,7.31
2023-04-27T06:53:10.883Z,7.38
2023-04-27T06:55:37.392Z,7.62
2023-04-27T06:58:04.461Z,7.36
2023-04-27T07:00:31.772Z,7.66
2023-04-27T07:02:58.416Z,8.08
2023-04-27T07:05:24.992Z,8.16
2023-04-27T07:07:52.115Z,8.12
2023-04-27T07:10:18.775Z,7.35
2023-04-27T07:12:45.242Z,7.71
2023-04-27T07:15:11.730Z,7.55
2023-04-27T07:17:38.387Z,7.68
2023-04-27T07:20:06.448Z,8.08
2023-04-27T07:22:33.518Z,9.32
2023-04-27T07:25:00.164Z,9.83
2023-04-27T07:27:26.775Z,10.38
2023-04-27T07:29:53.440Z,10.14
2023-04-27T07:32:20.108Z,9.62
2023-04-27T07:34:53.736Z,9.35
2023-04-27T07:37:21.056Z,9.60
2023-04-27T07:39:48.889Z,9.29
2023-04-27T07:42:15.376Z,9.90
2023-04-27T07:44:42.536Z,9.61
2023-04-27T07:47:09.135Z,9.06
2023-04-27T07:49:36.368Z,9.12
2023-04-27T07:52:04.599Z,9.21
2023-04-27T07:54:31.467Z,8.53
2023-04-27T07:56:58.101Z,8.61
2023-04-27T07:59:24.588Z,8.89
2023-04-27T08:01:51.205Z,8.80
2023-04-27T08:04:18.145Z,9.26
2023-04-27T08:06:46.780Z,10.53
2023-04-27T08:09:14.170Z,10.17
2023-04-27T08:11:40.839Z,10.85
2023-04-27T08:14:13.418Z,10.82
2023-04-27T08:16:43.663Z,10.40
2023-04-27T08:19:11.052Z,10.69
2023-04-27T08:21:38.057Z,11.41
2023-04-27T08:24:07.641Z,10.38
2023-04-27T08:26:35.290Z,9.75
2023-04-27T08:29:11.774Z,9.72
2023-04-27T08:31:46.664Z,10.50
2023-04-27T08:34:13.352Z,10.02
2023-04-27T08:36:39.822Z,10.25
2023-04-27T08:39:07.762Z,10.57
2023-04-27T08:41:34.347Z,10.16
2023-04-27T08:44:00.828Z,10.53
2023-04-27T08:46:27.471Z,10.85
2023-04-27T08:48:54.659Z,10.49
2023-04-27T08:51:21.863Z,9.94
2023-04-27T08:53:52.340Z,10.59
2023-04-27T08:56:19.929Z,11.13
2023-04-27T08:58:46.547Z,11.23
2023-04-27T09:01:12.988Z,12.56
2023-04-27T09:03:39.752Z,13.18
2023-04-27T09:06:07.011Z,13.24
2023-04-27T09:08:47.440Z,12.11
2023-04-27T09:11:29.846Z,11.94
2023-04-27T09:13:56.851Z,12.52
2023-04-27T09:16:24.758Z,11.82
2023-04-27T09:18:51.394Z,11.42
2023-04-27T09:21:28.280Z,11.71
2023-04-27T09:23:55.952Z,10.94
2023-04-27T09:26:27.292Z,9.98
2023-04-27T09:28:58.659Z,10.67
2023-04-27T09:31:35.927Z,10.86
2023-04-27T09:34:02.935Z,11.52
2023-04-27T09:36:30.887Z,12.65
2023-04-27T09:38:58.065Z,13.21
2023-04-27T09:41:25.364Z,13.67
2023-04-27T09:43:52.862Z,12.83
2023-04-27T09:46:19.855Z,11.16
2023-04-27T09:48:46.828Z,11.32
2023-04-27T09:51:14.940Z,10.56
2023-04-27T09:53:48.350Z,10.63
2023-04-27T09:56:37.631Z,10.78
2023-04-27T09:59:32.382Z,10.23
2023-04-27T10:02:05.145Z,10.18
2023-04-27T10:05:01.716Z,10.60
2023-04-27T10:07:28.951Z,10.54
2023-04-27T10:10:01.495Z,10.64
2023-04-27T10:12:33.409Z,11.61
2023-04-27T10:15:12.589Z,11.66
2023-04-27T10:17:39.231Z,10.83
2023-04-27T10:20:09.810Z,10.81
2023-04-27T10:22:52.571Z,11.26
2023-04-27T10:25:22.558Z,12.72
2023-04-27T10:27:53.273Z,11.66
2023-04-27T10:30:20.785Z,10.19
2023-04-27T10:33:07.473Z,11.25
2023-04-27T10:35:38.864Z,12.89
2023-04-27T10:38:06.396Z,12.13
2023-04-27T10:40:34.651Z,11.52
2023-04-27T10:43:12.918Z,10.87
2023-04-27T10:45:40.096Z,11.17
2023-04-27T10:48:07.518Z,10.94
2023-04-27T10:50:34.381Z,10.59
2023-04-27T10:53:03.459Z,10.76
2023-04-27T10:55:31.185Z,10.17
2023-04-27T10:57:59.204Z,10.49
2023-04-27T11:00:43.964Z,9.89
2023-04-27T11:03:19.876Z,9.01
2023-04-27T11:05:48.094Z,10.26
2023-04-27T11:08:16.989Z,10.54
2023-04-27T11:10:46.282Z,11.16
2023-04-27T11:13:14.866Z,10.91
2023-04-27T11:15:47.805Z,11.67
2023-04-27T11:18:15.973Z,10.96
2023-04-27T11:20:44.055Z,11.29
2023-04-27T11:23:14.707Z,11.49
2023-04-27T11:25:41.142Z,10.89
2023-04-27T11:28:18.398Z,11.56
2023-04-27T11:30:44.996Z,10.71
2023-04-27T11:33:11.613Z,10.55
2023-04-27T11:35:39.447Z,10.54
2023-04-27T11:38:06.270Z,9.87
2023-04-27T11:40:35.847Z,11.87
2023-04-27T11:43:05.160Z,11.34
2023-04-27T11:45:32.069Z,11.53
2023-04-27T11:47:59.098Z,11.39
2023-04-27T11:50:26.739Z,11.11
2023-04-27T11:52:53.497Z,9.97
2023-04-27T11:55:24.523Z,9.76
2023-04-27T11:57:57.515Z,10.53
2023-04-27T12:00:24.376Z,10.51
2023-04-27T12:02:51.138Z,10.05
2023-04-27T12:05:18.202Z,10.86
2023-04-27T12:07:44.755Z,10.90
2023-04-27T12:10:11.830Z,10.90
2023-04-27T12:12:38.769Z,11.52
2023-04-27T12:15:06.381Z,11.50
2023-04-27T12:17:33.069Z,11.89
2023-04-27T12:19:59.621Z,11.36
2023-04-27T12:22:26.151Z,10.30
2023-04-27T12:24:52.732Z,10.74
2023-04-27T12:27:19.274Z,10.54
2023-04-27T12:29:45.947Z,9.96
2023-04-27T12:32:12.434Z,10.42
2023-04-27T12:34:39.637Z,10.42
2023-04-27T12:37:06.634Z,10.51
2023-04-27T12:39:33.091Z,10.52
2023-04-27T12:41:59.545Z,10.87
2023-04-27T12:44:26.961Z,10.73
2023-04-27T12:46:53.478Z,10.85
2023-04-27T12:49:19.967Z,11.23
2023-04-27T12:51:47.963Z,10.65
2023-04-27T12:54:14.710Z,10.10
2023-04-27T12:56:41.955Z,10.70
2023-04-27T12:59:08.863Z,10.54
2023-04-27T13:01:35.433Z,11.24
2023-04-27T13:04:06.666Z,11.41
2023-04-27T13:14:24.969Z,11.70
2023-04-27T13:17:03.623Z,11.77
2023-04-27T15:30:57.107Z,9.50
2023-04-27T15:33:31.649Z,9.86
2023-04-27T15:39:31.632Z,9.69
2023-04-27T15:47:58.248Z,9.78
2023-04-27T15:58:26.799Z,9.03
2023-04-27T16:01:30.065Z,10.36
2023-04-27T16:04:03.120Z,10.22
2023-04-27T16:06:41.718Z,10.11
2023-04-27T16:09:13.849Z,9.32
2023-04-27T17:06:04.611Z,9.42
2023-04-27T17:28:20.226Z,10.02
2023-04-27T17:38:01.121Z,10.02
2023-04-27T17:44:41.712Z,9.91
2023-04-27T18:02:01.689Z,9.49
2023-04-27T18:04:28.742Z,9.47
2023-04-27T18:06:56.388Z,9.80
2023-04-27T18:09:33.177Z,9.59
2023-04-27T18:12:00.200Z,9.64
2023-04-27T18:14:26.749Z,9.14
2023-04-27T18:16:53.276Z,9.24
2023-04-27T18:19:19.835Z,9.66
2023-04-27T18:21:46.535Z,9.42
2023-04-27T18:24:21.426Z,9.74
2023-04-27T18:26:47.942Z,9.75
2023-04-27T18:29:14.768Z,9.67
2023-04-27T18:31:41.582Z,9.60
2023-04-27T18:34:08.220Z,9.53
2023-04-27T18:36:34.736Z,9.42
2023-04-27T18:39:01.260Z,9.32
2023-04-27T18:41:27.793Z,9.07
2023-04-27T18:43:54.261Z,9.10
2023-04-27T18:46:21.056Z,9.13
2023-04-27T18:48:47.615Z,9.03
2023-04-27T18:51:14.102Z,8.74
2023-04-27T18:53:40.757Z,8.84
2023-04-27T18:56:08.868Z,8.86
2023-04-27T18:58:36.054Z,8.77
2023-04-27T19:01:02.659Z,8.74
2023-04-27T19:03:29.521Z,8.66
2023-04-27T19:05:56.456Z,8.57
2023-04-27T19:08:22.998Z,8.61
2023-04-27T19:10:51.496Z,8.43
2023-04-27T19:13:18.276Z,8.36
2023-04-27T19:15:44.830Z,8.45
2023-04-27T19:18:11.955Z,8.40
2023-04-27T19:20:39.630Z,8.42
2023-04-27T19:23:08.032Z,8.26
2023-04-27T19:25:34.723Z,8.15
2023-04-27T19:28:01.344Z,8.13
2023-04-27T19:30:27.920Z,8.08
2023-04-27T19:32:54.593Z,7.96
2023-04-27T19:35:23.660Z,7.87
2023-04-27T19:37:50.873Z,7.80
2023-04-27T19:40:18.117Z,7.67
2023-04-27T19:42:44.700Z,7.61
2023-04-27T19:45:11.449Z,7.64
2023-04-27T19:47:37.931Z,7.59
2023-04-27T19:50:05.043Z,7.56
2023-04-27T19:52:31.641Z,7.64
2023-04-27T19:54:58.300Z,7.57
2023-04-27T19:57:24.759Z,7.58
2023-04-27T19:59:51.321Z,7.48
2023-04-27T20:02:17.837Z,7.51
2023-04-27T20:04:44.543Z,7.51
2023-04-27T20:07:12.103Z,7.40
2023-04-27T20:09:38.593Z,7.39
2023-04-27T20:12:05.202Z,7.32
2023-04-27T20:14:35.057Z,7.28
2023-04-27T20:17:03.065Z,7.13
2023-04-27T20:19:30.100Z,7.17
2023-04-27T20:21:56.721Z,7.21
2023-04-27T20:24:23.412Z,7.11
2023-04-27T20:26:49.908Z,7.09
2023-04-27T20:29:16.376Z,7.09
2023-04-27T20:31:42.966Z,7.02
2023-04-27T20:34:09.458Z,7.01
2023-04-27T20:36:36.499Z,6.95
2023-04-27T20:39:04.324Z,6.90
2023-04-27T20:41:31.111Z,6.88
2023-04-27T20:43:58.595Z,6.82
2023-04-27T20:46:25.051Z,6.65
2023-04-27T20:48:51.633Z,6.65
2023-04-27T20:51:18.435Z,6.64
2023-04-27T20:53:44.900Z,6.53
2023-04-27T20:56:12.087Z,6.51
2023-04-27T20:58:38.552Z,6.41
2023-04-27T21:01:05.137Z,6.12
2023-04-27T21:03:31.823Z,6.12
2023-04-27T21:05:58.394Z,6.10
2023-04-27T21:08:25.011Z,6.08
2023-04-27T21:10:51.527Z,6.17
2023-04-27T21:13:17.986Z,6.10
2023-04-27T21:15:44.433Z,6.12
2023-04-27T21:18:19.153Z,6.03
2023-04-27T21:20:55.398Z,6.13
2023-04-27T21:23:21.833Z,6.07
2023-04-27T21:25:48.347Z,6.03
2023-04-27T21:28:14.828Z,5.83
2023-04-27T21:30:41.509Z,5.66
2023-04-27T21:33:08.061Z,5.62
2023-04-27T21:35:34.905Z,5.78
2023-04-27T21:38:01.835Z,5.88
2023-04-27T21:40:28.301Z,5.73
2023-04-27T21:42:55.211Z,5.82
2023-04-27T21:45:21.678Z,5.83
2023-04-27T21:47:48.211Z,5.67
2023-04-27T21:50:16.588Z,5.58
2023-04-27T21:52:43.360Z,5.65
2023-04-27T21:55:10.094Z,5.71
2023-04-27T21:57:36.876Z,5.71
2023-04-27T22:00:13.167Z,5.67
2023-04-27T22:02:42.443Z,5.61
2023-04-27T22:05:12.265Z,5.34
2023-04-27T22:07:38.969Z,5.58
2023-04-27T22:10:06.188Z,5.67
2023-04-27T22:12:33.433Z,5.63
2023-04-27T22:15:00.036Z,5.70
2023-04-27T22:17:26.626Z,5.80
2023-04-27T22:19:53.465Z,5.59
2023-04-27T22:22:19.943Z,5.58
2023-04-27T22:24:47.486Z,5.62
2023-04-27T22:27:13.988Z,5.61
2023-04-27T22:29:40.455Z,5.61
2023-04-27T22:32:07.522Z,5.71
2023-04-27T22:34:34.034Z,5.70
2023-04-27T22:37:00.641Z,5.68
2023-04-27T22:39:27.183Z,5.63
2023-04-27T22:41:53.733Z,5.66
2023-04-27T22:44:20.402Z,5.81
2023-04-27T22:46:46.945Z,5.76
2023-04-27T22:49:14.963Z,5.81
2023-04-27T22:51:41.456Z,5.64
2023-04-27T22:54:07.899Z,5.62
2023-04-27T22:56:34.371Z,5.72
2023-04-27T22:59:00.906Z,5.56
2023-04-27T23:01:27.390Z,5.44
2023-04-27T23:03:54.216Z,5.31
2023-04-27T23:06:21.205Z,5.22
2023-04-27T23:08:48.079Z,5.38
2023-04-27T23:11:15.492Z,5.01
2023-04-27T23:13:42.110Z,5.03
2023-04-27T23:16:09.972Z,5.07
2023-04-27T23:18:36.666Z,4.54
2023-04-27T23:21:03.303Z,4.39
2023-04-27T23:23:29.832Z,4.38
2023-04-27T23:25:56.289Z,4.58
2023-04-27T23:28:22.746Z,4.93
2023-04-27T23:30:54.369Z,5.02
2023-04-27T23:33:21.815Z,4.65
2023-04-27T23:35:48.343Z,4.70
2023-04-27T23:38:14.851Z,4.59
2023-04-27T23:40:41.347Z,4.46
2023-04-27T23:43:07.800Z,4.82
2023-04-27T23:45:34.272Z,4.71
2023-04-27T23:48:00.857Z,4.77
2023-04-27T23:50:27.326Z,4.77
2023-04-27T23:52:53.776Z,4.77
2023-04-27T23:55:20.429Z,4.67
2023-04-27T23:57:47.016Z,4.52
